sensor_id;sensor_type;location;lat;lon;timestamp;P1;durP1;ratioP1;P2;durP2;ratioP2
52170;SDS011;38689;47.552;18.820;2023-07-13T00:00:19;4.87;;;2.70;;
52170;SDS011;38689;47.552;18.820;2023-07-13T00:02:46;5.18;;;2.17;;
52170;SDS011;38689;47.552;18.820;2023-07-13T00:05:12;3.05;;;1.73;;
52170;SDS011;38689;47.552;18.820;2023-07-13T00:07:37;3.42;;;1.90;;
52170;SDS011;38689;47.552;18.820;2023-07-13T00:10:04;3.58;;;1.90;;
52170;SDS011;38689;47.552;18.820;2023-07-13T00:12:32;4.60;;;1.73;;
52170;SDS011;38689;47.552;18.820;2023-07-13T00:15:00;2.58;;;1.42;;
52170;SDS011;38689;47.552;18.820;2023-07-13T00:17:28;3.10;;;1.50;;
52170;SDS011;38689;47.552;18.820;2023-07-13T00:19:55;3.97;;;1.70;;
52170;SDS011;38689;47.552;18.820;2023-07-13T00:22:21;2.58;;;1.35;;
52170;SDS011;38689;47.552;18.820;2023-07-13T00:24:49;2.87;;;1.30;;
52170;SDS011;38689;47.552;18.820;2023-07-13T00:27:17;4.57;;;1.17;;
52170;SDS011;38689;47.552;18.820;2023-07-13T00:29:43;2.37;;;1.30;;
52170;SDS011;38689;47.552;18.820;2023-07-13T00:32:10;2.20;;;1.20;;
52170;SDS011;38689;47.552;18.820;2023-07-13T00:34:37;3.50;;;1.30;;
52170;SDS011;38689;47.552;18.820;2023-07-13T00:37:04;3.00;;;1.00;;
52170;SDS011;38689;47.552;18.820;2023-07-13T00:39:32;2.33;;;1.30;;
52170;SDS011;38689;47.552;18.820;2023-07-13T00:42:00;3.15;;;1.10;;
52170;SDS011;38689;47.552;18.820;2023-07-13T00:44:26;2.37;;;1.10;;
52170;SDS011;38689;47.552;18.820;2023-07-13T00:46:52;2.15;;;1.00;;
52170;SDS011;38689;47.552;18.820;2023-07-13T00:49:20;2.20;;;1.00;;
52170;SDS011;38689;47.552;18.820;2023-07-13T00:51:54;1.58;;;1.00;;
52170;SDS011;38689;47.552;18.820;2023-07-13T00:54:28;1.42;;;0.80;;
52170;SDS011;38689;47.552;18.820;2023-07-13T00:56:57;1.20;;;0.70;;
52170;SDS011;38689;47.552;18.820;2023-07-13T00:59:25;1.45;;;0.75;;
52170;SDS011;38689;47.552;18.820;2023-07-13T01:01:51;0.98;;;0.77;;
52170;SDS011;38689;47.552;18.820;2023-07-13T01:04:18;1.30;;;0.90;;
52170;SDS011;38689;47.552;18.820;2023-07-13T01:06:44;1.95;;;0.80;;
52170;SDS011;38689;47.552;18.820;2023-07-13T01:09:12;2.15;;;0.80;;
52170;SDS011;38689;47.552;18.820;2023-07-13T01:11:39;2.15;;;1.00;;
52170;SDS011;38689;47.552;18.820;2023-07-13T01:14:07;1.70;;;0.90;;
52170;SDS011;38689;47.552;18.820;2023-07-13T01:16:34;2.33;;;0.88;;
52170;SDS011;38689;47.552;18.820;2023-07-13T01:19:01;1.10;;;0.90;;
52170;SDS011;38689;47.552;18.820;2023-07-13T01:21:31;2.35;;;0.85;;
52170;SDS011;38689;47.552;18.820;2023-07-13T01:23:59;1.35;;;0.70;;
52170;SDS011;38689;47.552;18.820;2023-07-13T01:26:25;2.05;;;0.90;;
52170;SDS011;38689;47.552;18.820;2023-07-13T01:28:52;2.35;;;0.80;;
52170;SDS011;38689;47.552;18.820;2023-07-13T01:31:18;2.75;;;1.00;;
52170;SDS011;38689;47.552;18.820;2023-07-13T01:33:44;2.25;;;0.77;;
52170;SDS011;38689;47.552;18.820;2023-07-13T01:36:11;1.75;;;0.90;;
52170;SDS011;38689;47.552;18.820;2023-07-13T01:38:37;2.20;;;0.90;;
52170;SDS011;38689;47.552;18.820;2023-07-13T01:41:03;1.98;;;0.75;;
52170;SDS011;38689;47.552;18.820;2023-07-13T01:43:29;1.62;;;0.90;;
52170;SDS011;38689;47.552;18.820;2023-07-13T01:45:55;1.62;;;0.82;;
52170;SDS011;38689;47.552;18.820;2023-07-13T01:48:21;2.55;;;0.88;;
52170;SDS011;38689;47.552;18.820;2023-07-13T01:50:47;2.35;;;0.90;;
52170;SDS011;38689;47.552;18.820;2023-07-13T01:53:13;2.50;;;0.90;;
52170;SDS011;38689;47.552;18.820;2023-07-13T01:55:39;1.70;;;0.80;;
52170;SDS011;38689;47.552;18.820;2023-07-13T01:58:05;1.50;;;0.80;;
52170;SDS011;38689;47.552;18.820;2023-07-13T02:00:32;1.67;;;0.80;;
52170;SDS011;38689;47.552;18.820;2023-07-13T02:02:58;2.28;;;1.00;;
52170;SDS011;38689;47.552;18.820;2023-07-13T02:05:24;1.30;;;0.90;;
52170;SDS011;38689;47.552;18.820;2023-07-13T02:07:50;1.20;;;0.77;;
52170;SDS011;38689;47.552;18.820;2023-07-13T02:10:16;1.42;;;0.80;;
52170;SDS011;38689;47.552;18.820;2023-07-13T02:12:42;1.42;;;0.80;;
52170;SDS011;38689;47.552;18.820;2023-07-13T02:15:09;2.15;;;0.80;;
52170;SDS011;38689;47.552;18.820;2023-07-13T02:17:35;1.10;;;0.77;;
52170;SDS011;38689;47.552;18.820;2023-07-13T02:20:02;2.37;;;0.85;;
52170;SDS011;38689;47.552;18.820;2023-07-13T02:22:28;2.42;;;1.20;;
52170;SDS011;38689;47.552;18.820;2023-07-13T02:24:54;2.55;;;1.20;;
52170;SDS011;38689;47.552;18.820;2023-07-13T02:27:20;1.65;;;1.10;;
52170;SDS011;38689;47.552;18.820;2023-07-13T02:29:46;1.62;;;1.02;;
52170;SDS011;38689;47.552;18.820;2023-07-13T02:32:12;3.90;;;1.20;;
52170;SDS011;38689;47.552;18.820;2023-07-13T02:34:38;2.30;;;1.10;;
52170;SDS011;38689;47.552;18.820;2023-07-13T02:37:06;4.07;;;1.50;;
52170;SDS011;38689;47.552;18.820;2023-07-13T02:39:31;1.95;;;1.30;;
52170;SDS011;38689;47.552;18.820;2023-07-13T02:41:58;2.67;;;1.40;;
52170;SDS011;38689;47.552;18.820;2023-07-13T02:44:25;3.92;;;1.98;;
52170;SDS011;38689;47.552;18.820;2023-07-13T02:46:51;3.53;;;1.77;;
52170;SDS011;38689;47.552;18.820;2023-07-13T02:49:17;3.72;;;1.80;;
52170;SDS011;38689;47.552;18.820;2023-07-13T02:51:43;3.00;;;1.70;;
52170;SDS011;38689;47.552;18.820;2023-07-13T02:54:09;2.70;;;1.80;;
52170;SDS011;38689;47.552;18.820;2023-07-13T02:56:37;4.28;;;2.00;;
52170;SDS011;38689;47.552;18.820;2023-07-13T02:59:04;4.57;;;1.83;;
52170;SDS011;38689;47.552;18.820;2023-07-13T03:01:30;4.22;;;2.00;;
52170;SDS011;38689;47.552;18.820;2023-07-13T03:04:00;3.75;;;2.10;;
52170;SDS011;38689;47.552;18.820;2023-07-13T03:06:26;4.93;;;2.25;;
52170;SDS011;38689;47.552;18.820;2023-07-13T03:08:56;2.92;;;2.00;;
52170;SDS011;38689;47.552;18.820;2023-07-13T03:11:22;3.15;;;2.03;;
52170;SDS011;38689;47.552;18.820;2023-07-13T03:13:48;5.55;;;2.05;;
52170;SDS011;38689;47.552;18.820;2023-07-13T03:16:14;3.45;;;2.17;;
52170;SDS011;38689;47.552;18.820;2023-07-13T03:18:44;4.57;;;2.42;;
52170;SDS011;38689;47.552;18.820;2023-07-13T03:21:10;4.90;;;2.15;;
52170;SDS011;38689;47.552;18.820;2023-07-13T03:23:37;4.43;;;2.00;;
52170;SDS011;38689;47.552;18.820;2023-07-13T03:28:30;4.20;;;2.10;;
52170;SDS011;38689;47.552;18.820;2023-07-13T03:31:04;2.62;;;1.75;;
52170;SDS011;38689;47.552;18.820;2023-07-13T03:33:36;5.50;;;2.40;;
52170;SDS011;38689;47.552;18.820;2023-07-13T03:36:04;3.62;;;2.30;;
52170;SDS011;38689;47.552;18.820;2023-07-13T03:38:31;5.20;;;2.40;;
52170;SDS011;38689;47.552;18.820;2023-07-13T03:40:57;4.03;;;2.10;;
52170;SDS011;38689;47.552;18.820;2023-07-13T03:43:23;4.70;;;2.15;;
52170;SDS011;38689;47.552;18.820;2023-07-13T03:45:49;5.12;;;2.30;;
52170;SDS011;38689;47.552;18.820;2023-07-13T03:48:15;4.15;;;2.10;;
52170;SDS011;38689;47.552;18.820;2023-07-13T03:50:40;4.22;;;2.37;;
52170;SDS011;38689;47.552;18.820;2023-07-13T03:53:07;4.15;;;2.22;;
52170;SDS011;38689;47.552;18.820;2023-07-13T03:55:33;3.37;;;1.77;;
52170;SDS011;38689;47.552;18.820;2023-07-13T03:58:00;3.20;;;1.27;;
52170;SDS011;38689;47.552;18.820;2023-07-13T04:00:31;4.43;;;1.70;;
52170;SDS011;38689;47.552;18.820;2023-07-13T04:02:57;3.42;;;1.83;;
52170;SDS011;38689;47.552;18.820;2023-07-13T04:05:42;2.50;;;1.50;;
52170;SDS011;38689;47.552;18.820;2023-07-13T04:08:09;3.30;;;1.90;;
52170;SDS011;38689;47.552;18.820;2023-07-13T04:10:34;3.20;;;1.85;;
52170;SDS011;38689;47.552;18.820;2023-07-13T04:13:00;4.68;;;1.92;;
52170;SDS011;38689;47.552;18.820;2023-07-13T04:15:29;4.65;;;2.47;;
52170;SDS011;38689;47.552;18.820;2023-07-13T04:17:55;6.68;;;2.92;;
52170;SDS011;38689;47.552;18.820;2023-07-13T04:20:22;6.30;;;3.33;;
52170;SDS011;38689;47.552;18.820;2023-07-13T04:22:49;5.53;;;2.97;;
52170;SDS011;38689;47.552;18.820;2023-07-13T04:25:16;5.87;;;3.10;;
52170;SDS011;38689;47.552;18.820;2023-07-13T04:27:42;6.28;;;3.30;;
52170;SDS011;38689;47.552;18.820;2023-07-13T04:30:08;5.60;;;3.45;;
52170;SDS011;38689;47.552;18.820;2023-07-13T04:32:34;7.12;;;3.97;;
52170;SDS011;38689;47.552;18.820;2023-07-13T04:35:01;7.53;;;4.28;;
52170;SDS011;38689;47.552;18.820;2023-07-13T04:37:27;8.75;;;4.43;;
52170;SDS011;38689;47.552;18.820;2023-07-13T04:39:53;5.20;;;4.00;;
52170;SDS011;38689;47.552;18.820;2023-07-13T04:42:19;9.75;;;4.37;;
52170;SDS011;38689;47.552;18.820;2023-07-13T04:44:48;7.47;;;4.45;;
52170;SDS011;38689;47.552;18.820;2023-07-13T04:47:15;7.57;;;4.87;;
52170;SDS011;38689;47.552;18.820;2023-07-13T04:49:41;7.60;;;4.10;;
52170;SDS011;38689;47.552;18.820;2023-07-13T04:52:07;7.35;;;4.50;;
52170;SDS011;38689;47.552;18.820;2023-07-13T04:54:33;9.35;;;4.75;;
52170;SDS011;38689;47.552;18.820;2023-07-13T04:57:00;7.87;;;5.10;;
52170;SDS011;38689;47.552;18.820;2023-07-13T04:59:26;12.65;;;5.85;;
52170;SDS011;38689;47.552;18.820;2023-07-13T05:01:52;13.38;;;5.82;;
52170;SDS011;38689;47.552;18.820;2023-07-13T05:04:18;10.13;;;5.65;;
52170;SDS011;38689;47.552;18.820;2023-07-13T05:06:44;9.95;;;5.40;;
52170;SDS011;38689;47.552;18.820;2023-07-13T05:09:10;10.35;;;4.93;;
52170;SDS011;38689;47.552;18.820;2023-07-13T05:11:38;8.23;;;4.18;;
52170;SDS011;38689;47.552;18.820;2023-07-13T05:14:04;6.30;;;3.37;;
52170;SDS011;38689;47.552;18.820;2023-07-13T05:16:30;6.10;;;3.50;;
52170;SDS011;38689;47.552;18.820;2023-07-13T05:18:57;6.62;;;3.47;;
52170;SDS011;38689;47.552;18.820;2023-07-13T05:21:23;4.28;;;3.20;;
52170;SDS011;38689;47.552;18.820;2023-07-13T05:23:50;5.57;;;3.40;;
52170;SDS011;38689;47.552;18.820;2023-07-13T05:26:16;6.00;;;3.10;;
52170;SDS011;38689;47.552;18.820;2023-07-13T05:28:42;5.47;;;3.70;;
52170;SDS011;38689;47.552;18.820;2023-07-13T05:31:09;5.72;;;3.53;;
52170;SDS011;38689;47.552;18.820;2023-07-13T05:33:35;6.45;;;3.15;;
52170;SDS011;38689;47.552;18.820;2023-07-13T05:36:01;7.03;;;3.35;;
52170;SDS011;38689;47.552;18.820;2023-07-13T05:38:27;5.30;;;2.62;;
52170;SDS011;38689;47.552;18.820;2023-07-13T05:40:54;4.20;;;2.50;;
52170;SDS011;38689;47.552;18.820;2023-07-13T05:43:21;5.82;;;2.58;;
52170;SDS011;38689;47.552;18.820;2023-07-13T05:45:47;3.65;;;2.22;;
52170;SDS011;38689;47.552;18.820;2023-07-13T05:48:14;4.20;;;2.53;;
52170;SDS011;38689;47.552;18.820;2023-07-13T05:50:40;4.03;;;2.42;;
52170;SDS011;38689;47.552;18.820;2023-07-13T05:53:06;4.60;;;2.62;;
52170;SDS011;38689;47.552;18.820;2023-07-13T05:55:32;5.28;;;2.58;;
52170;SDS011;38689;47.552;18.820;2023-07-13T05:57:59;4.12;;;2.80;;
52170;SDS011;38689;47.552;18.820;2023-07-13T06:00:26;6.00;;;2.90;;
52170;SDS011;38689;47.552;18.820;2023-07-13T06:02:52;5.20;;;2.70;;
52170;SDS011;38689;47.552;18.820;2023-07-13T06:05:18;4.93;;;2.47;;
52170;SDS011;38689;47.552;18.820;2023-07-13T06:07:44;4.12;;;2.40;;
52170;SDS011;38689;47.552;18.820;2023-07-13T06:10:10;3.80;;;2.30;;
52170;SDS011;38689;47.552;18.820;2023-07-13T06:12:36;4.22;;;2.28;;
52170;SDS011;38689;47.552;18.820;2023-07-13T06:15:02;4.20;;;2.22;;
52170;SDS011;38689;47.552;18.820;2023-07-13T06:17:29;6.03;;;2.20;;
52170;SDS011;38689;47.552;18.820;2023-07-13T06:19:55;3.33;;;1.70;;
52170;SDS011;38689;47.552;18.820;2023-07-13T06:22:21;3.00;;;1.60;;
52170;SDS011;38689;47.552;18.820;2023-07-13T06:24:47;3.15;;;2.10;;
52170;SDS011;38689;47.552;18.820;2023-07-13T06:27:12;3.42;;;1.40;;
52170;SDS011;38689;47.552;18.820;2023-07-13T06:29:38;2.72;;;1.70;;
52170;SDS011;38689;47.552;18.820;2023-07-13T06:32:05;3.42;;;1.80;;
52170;SDS011;38689;47.552;18.820;2023-07-13T06:34:31;3.22;;;2.00;;
52170;SDS011;38689;47.552;18.820;2023-07-13T06:36:57;3.40;;;2.00;;
52170;SDS011;38689;47.552;18.820;2023-07-13T06:39:23;3.90;;;1.90;;
52170;SDS011;38689;47.552;18.820;2023-07-13T06:41:49;4.10;;;2.20;;
52170;SDS011;38689;47.552;18.820;2023-07-13T06:44:15;3.83;;;2.03;;
52170;SDS011;38689;47.552;18.820;2023-07-13T06:46:41;2.80;;;2.00;;
52170;SDS011;38689;47.552;18.820;2023-07-13T06:49:08;3.45;;;2.05;;
52170;SDS011;38689;47.552;18.820;2023-07-13T06:51:34;4.55;;;2.20;;
52170;SDS011;38689;47.552;18.820;2023-07-13T06:54:00;4.20;;;2.30;;
52170;SDS011;38689;47.552;18.820;2023-07-13T06:56:26;3.17;;;2.10;;
52170;SDS011;38689;47.552;18.820;2023-07-13T06:58:52;3.42;;;2.15;;
52170;SDS011;38689;47.552;18.820;2023-07-13T07:01:18;3.22;;;2.20;;
52170;SDS011;38689;47.552;18.820;2023-07-13T07:03:44;3.03;;;2.00;;
52170;SDS011;38689;47.552;18.820;2023-07-13T07:06:15;4.95;;;2.22;;
52170;SDS011;38689;47.552;18.820;2023-07-13T07:08:43;4.43;;;2.30;;
52170;SDS011;38689;47.552;18.820;2023-07-13T07:11:14;3.00;;;1.77;;
52170;SDS011;38689;47.552;18.820;2023-07-13T07:13:42;2.67;;;1.90;;
52170;SDS011;38689;47.552;18.820;2023-07-13T07:16:08;4.82;;;2.45;;
52170;SDS011;38689;47.552;18.820;2023-07-13T07:18:34;4.12;;;2.00;;
52170;SDS011;38689;47.552;18.820;2023-07-13T07:21:00;3.45;;;2.00;;
52170;SDS011;38689;47.552;18.820;2023-07-13T07:23:28;4.00;;;2.20;;
52170;SDS011;38689;47.552;18.820;2023-07-13T07:25:54;3.90;;;2.00;;
52170;SDS011;38689;47.552;18.820;2023-07-13T07:28:20;2.87;;;1.90;;
52170;SDS011;38689;47.552;18.820;2023-07-13T07:30:46;5.28;;;2.10;;
52170;SDS011;38689;47.552;18.820;2023-07-13T07:33:13;3.90;;;1.80;;
52170;SDS011;38689;47.552;18.820;2023-07-13T07:35:40;2.25;;;1.85;;
52170;SDS011;38689;47.552;18.820;2023-07-13T07:38:06;3.60;;;1.80;;
52170;SDS011;38689;47.552;18.820;2023-07-13T07:40:38;2.90;;;1.87;;
52170;SDS011;38689;47.552;18.820;2023-07-13T07:43:05;4.37;;;2.30;;
52170;SDS011;38689;47.552;18.820;2023-07-13T07:45:31;3.25;;;2.08;;
52170;SDS011;38689;47.552;18.820;2023-07-13T07:47:57;3.47;;;2.17;;
52170;SDS011;38689;47.552;18.820;2023-07-13T07:50:27;4.87;;;2.15;;
52170;SDS011;38689;47.552;18.820;2023-07-13T07:52:54;3.08;;;1.98;;
52170;SDS011;38689;47.552;18.820;2023-07-13T07:55:21;3.70;;;2.10;;
52170;SDS011;38689;47.552;18.820;2023-07-13T07:57:48;2.45;;;1.83;;
52170;SDS011;38689;47.552;18.820;2023-07-13T08:00:15;2.72;;;1.73;;
52170;SDS011;38689;47.552;18.820;2023-07-13T08:02:41;4.30;;;2.20;;
52170;SDS011;38689;47.552;18.820;2023-07-13T08:05:08;3.70;;;2.08;;
52170;SDS011;38689;47.552;18.820;2023-07-13T08:07:34;3.37;;;1.75;;
52170;SDS011;38689;47.552;18.820;2023-07-13T08:10:03;2.90;;;1.85;;
52170;SDS011;38689;47.552;18.820;2023-07-13T08:12:30;7.57;;;2.30;;
52170;SDS011;38689;47.552;18.820;2023-07-13T08:14:56;3.65;;;1.77;;
52170;SDS011;38689;47.552;18.820;2023-07-13T08:17:26;2.87;;;2.05;;
52170;SDS011;38689;47.552;18.820;2023-07-13T08:19:52;3.22;;;2.00;;
52170;SDS011;38689;47.552;18.820;2023-07-13T08:22:18;4.28;;;1.95;;
52170;SDS011;38689;47.552;18.820;2023-07-13T08:24:44;3.28;;;2.00;;
52170;SDS011;38689;47.552;18.820;2023-07-13T08:27:10;3.28;;;2.00;;
52170;SDS011;38689;47.552;18.820;2023-07-13T08:29:37;3.15;;;1.92;;
52170;SDS011;38689;47.552;18.820;2023-07-13T08:32:06;2.75;;;2.00;;
52170;SDS011;38689;47.552;18.820;2023-07-13T08:34:36;4.85;;;2.08;;
52170;SDS011;38689;47.552;18.820;2023-07-13T08:37:02;3.62;;;2.15;;
52170;SDS011;38689;47.552;18.820;2023-07-13T08:39:29;3.03;;;1.90;;
52170;SDS011;38689;47.552;18.820;2023-07-13T08:41:57;3.37;;;2.00;;
52170;SDS011;38689;47.552;18.820;2023-07-13T08:47:21;4.20;;;2.20;;
52170;SDS011;38689;47.552;18.820;2023-07-13T08:49:48;3.05;;;2.20;;
52170;SDS011;38689;47.552;18.820;2023-07-13T08:52:20;3.50;;;2.17;;
52170;SDS011;38689;47.552;18.820;2023-07-13T08:54:51;4.03;;;2.50;;
52170;SDS011;38689;47.552;18.820;2023-07-13T08:57:20;2.80;;;2.30;;
52170;SDS011;38689;47.552;18.820;2023-07-13T08:59:48;3.33;;;2.08;;
52170;SDS011;38689;47.552;18.820;2023-07-13T09:04:45;4.72;;;2.53;;
52170;SDS011;38689;47.552;18.820;2023-07-13T09:07:21;4.35;;;2.40;;
52170;SDS011;38689;47.552;18.820;2023-07-13T09:10:14;3.62;;;2.37;;
52170;SDS011;38689;47.552;18.820;2023-07-13T09:12:49;3.78;;;2.53;;
52170;SDS011;38689;47.552;18.820;2023-07-13T09:15:22;5.03;;;2.40;;
52170;SDS011;38689;47.552;18.820;2023-07-13T09:17:51;3.75;;;2.17;;
52170;SDS011;38689;47.552;18.820;2023-07-13T09:20:25;3.75;;;2.28;;
52170;SDS011;38689;47.552;18.820;2023-07-13T09:22:54;3.42;;;2.40;;
52170;SDS011;38689;47.552;18.820;2023-07-13T09:27:59;3.42;;;2.22;;
52170;SDS011;38689;47.552;18.820;2023-07-13T09:33:17;2.90;;;2.12;;
52170;SDS011;38689;47.552;18.820;2023-07-13T09:35:43;4.28;;;2.10;;
52170;SDS011;38689;47.552;18.820;2023-07-13T09:38:13;5.50;;;2.20;;
52170;SDS011;38689;47.552;18.820;2023-07-13T09:40:43;3.65;;;2.10;;
52170;SDS011;38689;47.552;18.820;2023-07-13T09:43:20;3.47;;;1.90;;
52170;SDS011;38689;47.552;18.820;2023-07-13T09:45:46;3.33;;;2.10;;
52170;SDS011;38689;47.552;18.820;2023-07-13T09:48:15;4.45;;;1.80;;
52170;SDS011;38689;47.552;18.820;2023-07-13T09:50:42;3.37;;;1.67;;
52170;SDS011;38689;47.552;18.820;2023-07-13T09:53:13;3.20;;;1.98;;
52170;SDS011;38689;47.552;18.820;2023-07-13T09:55:44;2.85;;;1.92;;
52170;SDS011;38689;47.552;18.820;2023-07-13T09:58:19;2.35;;;1.77;;
52170;SDS011;38689;47.552;18.820;2023-07-13T10:00:58;3.35;;;1.90;;
52170;SDS011;38689;47.552;18.820;2023-07-13T10:03:31;4.10;;;1.90;;
52170;SDS011;38689;47.552;18.820;2023-07-13T10:06:16;3.17;;;1.80;;
52170;SDS011;38689;47.552;18.820;2023-07-13T10:08:44;2.47;;;1.80;;
52170;SDS011;38689;47.552;18.820;2023-07-13T10:11:14;3.15;;;2.12;;
52170;SDS011;38689;47.552;18.820;2023-07-13T10:13:45;2.67;;;1.90;;
52170;SDS011;38689;47.552;18.820;2023-07-13T10:16:25;3.85;;;1.92;;
52170;SDS011;38689;47.552;18.820;2023-07-13T10:18:56;2.87;;;1.75;;
52170;SDS011;38689;47.552;18.820;2023-07-13T10:21:26;4.05;;;1.90;;
52170;SDS011;38689;47.552;18.820;2023-07-13T10:23:57;2.83;;;1.92;;
52170;SDS011;38689;47.552;18.820;2023-07-13T10:26:31;3.42;;;2.00;;
52170;SDS011;38689;47.552;18.820;2023-07-13T10:29:04;3.22;;;2.10;;
52170;SDS011;38689;47.552;18.820;2023-07-13T10:31:34;3.37;;;2.10;;
52170;SDS011;38689;47.552;18.820;2023-07-13T10:34:00;4.18;;;2.15;;
52170;SDS011;38689;47.552;18.820;2023-07-13T10:36:34;2.97;;;1.73;;
52170;SDS011;38689;47.552;18.820;2023-07-13T10:39:09;4.87;;;2.30;;
52170;SDS011;38689;47.552;18.820;2023-07-13T10:41:41;3.00;;;1.73;;
52170;SDS011;38689;47.552;18.820;2023-07-13T10:44:12;2.50;;;1.65;;
52170;SDS011;38689;47.552;18.820;2023-07-13T10:46:44;4.12;;;1.58;;
52170;SDS011;38689;47.552;18.820;2023-07-13T10:49:10;3.12;;;1.65;;
52170;SDS011;38689;47.552;18.820;2023-07-13T10:51:37;3.85;;;1.60;;
52170;SDS011;38689;47.552;18.820;2023-07-13T10:56:38;3.17;;;1.80;;
52170;SDS011;38689;47.552;18.820;2023-07-13T10:59:13;3.28;;;1.67;;
52170;SDS011;38689;47.552;18.820;2023-07-13T11:04:22;2.70;;;1.73;;
52170;SDS011;38689;47.552;18.820;2023-07-13T11:06:50;3.15;;;2.03;;
52170;SDS011;38689;47.552;18.820;2023-07-13T11:09:28;2.78;;;1.90;;
52170;SDS011;38689;47.552;18.820;2023-07-13T11:11:58;3.87;;;2.00;;
52170;SDS011;38689;47.552;18.820;2023-07-13T11:14:35;3.37;;;1.50;;
52170;SDS011;38689;47.552;18.820;2023-07-13T11:20:42;2.92;;;1.60;;
52170;SDS011;38689;47.552;18.820;2023-07-13T11:28:11;3.30;;;1.95;;
52170;SDS011;38689;47.552;18.820;2023-07-13T11:38:27;2.92;;;2.10;;
52170;SDS011;38689;47.552;18.820;2023-07-13T11:40:56;3.00;;;2.10;;
52170;SDS011;38689;47.552;18.820;2023-07-13T11:43:24;3.08;;;2.20;;
52170;SDS011;38689;47.552;18.820;2023-07-13T11:45:51;3.15;;;1.90;;
52170;SDS011;38689;47.552;18.820;2023-07-13T11:48:21;2.70;;;2.08;;
52170;SDS011;38689;47.552;18.820;2023-07-13T11:50:53;3.05;;;2.20;;
52170;SDS011;38689;47.552;18.820;2023-07-13T11:53:21;3.15;;;2.30;;
52170;SDS011;38689;47.552;18.820;2023-07-13T11:55:47;3.15;;;2.20;;
52170;SDS011;38689;47.552;18.820;2023-07-13T11:58:16;4.05;;;2.42;;
52170;SDS011;38689;47.552;18.820;2023-07-13T12:00:46;2.78;;;2.33;;
52170;SDS011;38689;47.552;18.820;2023-07-13T12:03:13;2.90;;;2.10;;
52170;SDS011;38689;47.552;18.820;2023-07-13T12:06:06;3.20;;;2.22;;
52170;SDS011;38689;47.552;18.820;2023-07-13T12:08:31;5.45;;;2.20;;
52170;SDS011;38689;47.552;18.820;2023-07-13T12:11:05;4.32;;;2.30;;
52170;SDS011;38689;47.552;18.820;2023-07-13T12:13:36;3.00;;;2.25;;
52170;SDS011;38689;47.552;18.820;2023-07-13T12:16:09;4.05;;;2.28;;
52170;SDS011;38689;47.552;18.820;2023-07-13T12:18:38;4.30;;;2.30;;
52170;SDS011;38689;47.552;18.820;2023-07-13T12:21:05;3.92;;;2.40;;
52170;SDS011;38689;47.552;18.820;2023-07-13T12:23:36;3.87;;;2.10;;
52170;SDS011;38689;47.552;18.820;2023-07-13T12:26:03;5.75;;;2.40;;
52170;SDS011;38689;47.552;18.820;2023-07-13T12:31:00;3.55;;;2.20;;
52170;SDS011;38689;47.552;18.820;2023-07-13T12:33:28;3.45;;;2.25;;
52170;SDS011;38689;47.552;18.820;2023-07-13T12:35:54;2.55;;;2.17;;
52170;SDS011;38689;47.552;18.820;2023-07-13T12:38:21;3.22;;;1.85;;
52170;SDS011;38689;47.552;18.820;2023-07-13T12:40:51;2.97;;;1.70;;
52170;SDS011;38689;47.552;18.820;2023-07-13T12:43:19;3.03;;;1.80;;
52170;SDS011;38689;47.552;18.820;2023-07-13T12:48:21;2.50;;;1.90;;
52170;SDS011;38689;47.552;18.820;2023-07-13T12:50:48;2.85;;;1.92;;
52170;SDS011;38689;47.552;18.820;2023-07-13T12:53:17;2.97;;;2.05;;
52170;SDS011;38689;47.552;18.820;2023-07-13T12:55:56;2.60;;;2.00;;
52170;SDS011;38689;47.552;18.820;2023-07-13T12:58:37;2.60;;;1.90;;
52170;SDS011;38689;47.552;18.820;2023-07-13T13:01:04;4.25;;;1.70;;
52170;SDS011;38689;47.552;18.820;2023-07-13T13:03:38;2.40;;;1.50;;
52170;SDS011;38689;47.552;18.820;2023-07-13T13:08:46;3.05;;;2.22;;
52170;SDS011;38689;47.552;18.820;2023-07-13T13:11:17;2.72;;;1.80;;
52170;SDS011;38689;47.552;18.820;2023-07-13T13:13:44;2.47;;;1.67;;
52170;SDS011;38689;47.552;18.820;2023-07-13T13:18:40;2.53;;;1.50;;
52170;SDS011;38689;47.552;18.820;2023-07-13T13:21:06;3.00;;;1.80;;
52170;SDS011;38689;47.552;18.820;2023-07-13T13:23:33;2.72;;;2.12;;
52170;SDS011;38689;47.552;18.820;2023-07-13T13:25:59;2.92;;;2.30;;
52170;SDS011;38689;47.552;18.820;2023-07-13T13:28:26;2.83;;;1.70;;
52170;SDS011;38689;47.552;18.820;2023-07-13T13:30:52;2.60;;;1.60;;
52170;SDS011;38689;47.552;18.820;2023-07-13T13:33:19;2.50;;;1.70;;
52170;SDS011;38689;47.552;18.820;2023-07-13T13:35:47;2.37;;;1.58;;
52170;SDS011;38689;47.552;18.820;2023-07-13T13:38:14;2.90;;;1.80;;
52170;SDS011;38689;47.552;18.820;2023-07-13T13:40:45;2.50;;;1.75;;
52170;SDS011;38689;47.552;18.820;2023-07-13T13:43:18;3.35;;;1.92;;
52170;SDS011;38689;47.552;18.820;2023-07-13T13:45:45;2.37;;;1.50;;
52170;SDS011;38689;47.552;18.820;2023-07-13T13:48:18;3.35;;;1.62;;
52170;SDS011;38689;47.552;18.820;2023-07-13T13:50:53;2.72;;;1.60;;
52170;SDS011;38689;47.552;18.820;2023-07-13T13:53:22;2.78;;;2.00;;
52170;SDS011;38689;47.552;18.820;2023-07-13T13:55:49;2.28;;;1.80;;
52170;SDS011;38689;47.552;18.820;2023-07-13T13:58:15;2.50;;;1.87;;
52170;SDS011;38689;47.552;18.820;2023-07-13T14:00:41;3.20;;;1.83;;
52170;SDS011;38689;47.552;18.820;2023-07-13T14:03:14;2.80;;;1.98;;
52170;SDS011;38689;47.552;18.820;2023-07-13T14:05:41;3.53;;;2.00;;
52170;SDS011;38689;47.552;18.820;2023-07-13T14:08:14;3.75;;;1.85;;
52170;SDS011;38689;47.552;18.820;2023-07-13T14:10:41;4.93;;;1.80;;
52170;SDS011;38689;47.552;18.820;2023-07-13T14:13:14;2.60;;;1.90;;
52170;SDS011;38689;47.552;18.820;2023-07-13T14:15:45;2.75;;;1.80;;
52170;SDS011;38689;47.552;18.820;2023-07-13T14:18:11;2.40;;;1.87;;
52170;SDS011;38689;47.552;18.820;2023-07-13T14:20:47;3.03;;;1.80;;
52170;SDS011;38689;47.552;18.820;2023-07-13T14:23:15;3.17;;;2.05;;
52170;SDS011;38689;47.552;18.820;2023-07-13T14:25:43;3.12;;;2.03;;
52170;SDS011;38689;47.552;18.820;2023-07-13T14:28:17;3.42;;;2.20;;
52170;SDS011;38689;47.552;18.820;2023-07-13T14:30:44;3.62;;;2.08;;
52170;SDS011;38689;47.552;18.820;2023-07-13T14:33:10;2.60;;;1.90;;
52170;SDS011;38689;47.552;18.820;2023-07-13T14:35:37;3.12;;;2.00;;
52170;SDS011;38689;47.552;18.820;2023-07-13T14:38:03;4.03;;;2.10;;
52170;SDS011;38689;47.552;18.820;2023-07-13T14:40:30;3.37;;;2.17;;
52170;SDS011;38689;47.552;18.820;2023-07-13T14:42:57;3.37;;;2.00;;
52170;SDS011;38689;47.552;18.820;2023-07-13T14:45:24;2.90;;;1.90;;
52170;SDS011;38689;47.552;18.820;2023-07-13T14:47:50;3.87;;;2.00;;
52170;SDS011;38689;47.552;18.820;2023-07-13T14:50:20;3.03;;;1.92;;
52170;SDS011;38689;47.552;18.820;2023-07-13T14:52:50;2.90;;;1.90;;
52170;SDS011;38689;47.552;18.820;2023-07-13T14:55:17;3.72;;;1.90;;
52170;SDS011;38689;47.552;18.820;2023-07-13T14:57:44;3.30;;;2.00;;
52170;SDS011;38689;47.552;18.820;2023-07-13T15:00:15;3.22;;;2.00;;
52170;SDS011;38689;47.552;18.820;2023-07-13T15:02:43;3.35;;;1.87;;
52170;SDS011;38689;47.552;18.820;2023-07-13T15:05:14;2.85;;;1.95;;
52170;SDS011;38689;47.552;18.820;2023-07-13T15:07:42;2.60;;;1.90;;
52170;SDS011;38689;47.552;18.820;2023-07-13T15:10:15;4.35;;;2.15;;
52170;SDS011;38689;47.552;18.820;2023-07-13T15:12:42;4.10;;;2.00;;
52170;SDS011;38689;47.552;18.820;2023-07-13T15:15:08;5.12;;;2.17;;
52170;SDS011;38689;47.552;18.820;2023-07-13T15:17:38;3.78;;;2.05;;
52170;SDS011;38689;47.552;18.820;2023-07-13T15:20:06;3.42;;;2.22;;
52170;SDS011;38689;47.552;18.820;2023-07-13T15:22:43;2.80;;;2.08;;